createdAt,value
2019-04-04T00:03:10.075Z,1.97
2019-04-04T00:08:14.054Z,1.60
2019-04-04T00:13:18.006Z,2.40
2019-04-04T00:18:22.155Z,1.53
2019-04-04T00:23:26.382Z,1.77
2019-04-04T00:28:30.594Z,2.23
2019-04-04T00:33:34.462Z,2.40
2019-04-04T00:38:38.645Z,2.57
2019-04-04T00:43:43.139Z,2.63
2019-04-04T00:48:47.053Z,2.83
2019-04-04T00:53:51.484Z,2.07
2019-04-04T00:58:56.040Z,3.63
2019-04-04T01:04:00.618Z,2.63
2019-04-04T01:09:11.694Z,2.77
2019-04-04T01:14:12.061Z,3.07
2019-04-04T01:19:16.147Z,3.07
2019-04-04T01:24:20.840Z,3.47
2019-04-04T01:29:24.827Z,3.10
2019-04-04T01:34:29.049Z,3.73
2019-04-04T01:39:32.986Z,3.37
2019-04-04T01:44:37.535Z,3.37
2019-04-04T01:49:42.055Z,3.20
2019-04-04T01:54:46.246Z,3.87
2019-04-04T01:59:50.111Z,3.60
2019-04-04T02:04:55.947Z,3.63
2019-04-04T02:09:59.806Z,4.13
2019-04-04T02:15:04.534Z,3.30
2019-04-04T02:20:08.983Z,3.60
2019-04-04T02:25:13.306Z,3.63
2019-04-04T02:30:17.323Z,3.30
2019-04-04T02:35:21.275Z,3.27
2019-04-04T02:40:25.230Z,3.80
2019-04-04T02:45:29.108Z,3.20
2019-04-04T02:50:35.527Z,3.43
2019-04-04T02:55:39.755Z,3.47
2019-04-04T03:00:43.884Z,4.20
2019-04-04T03:05:51.192Z,3.87
2019-04-04T03:10:54.512Z,4.00
2019-04-04T03:15:58.798Z,4.13
2019-04-04T03:21:02.758Z,4.00
2019-04-04T03:26:07.052Z,4.10
2019-04-04T03:31:10.938Z,4.20
2019-04-04T03:36:14.795Z,4.50
2019-04-04T03:41:18.695Z,3.73
2019-04-04T03:46:22.904Z,4.97
2019-04-04T03:51:27.256Z,4.30
2019-04-04T03:56:38.848Z,4.07
2019-04-04T04:01:37.480Z,4.27
2019-04-04T04:06:43.095Z,3.90
2019-04-04T04:11:47.739Z,4.10
2019-04-04T04:16:51.987Z,4.30
2019-04-04T04:21:56.474Z,4.50
2019-04-04T04:27:00.664Z,4.23
2019-04-04T04:32:04.891Z,3.70
2019-04-04T04:37:09.023Z,3.50
2019-04-04T04:42:13.203Z,4.13
2019-04-04T04:47:17.073Z,4.37
2019-04-04T04:52:21.635Z,4.77
2019-04-04T04:57:29.989Z,4.50
2019-04-04T05:02:31.510Z,4.90
2019-04-04T05:07:38.469Z,4.07
2019-04-04T05:12:41.052Z,4.23
2019-04-04T05:17:45.003Z,3.97
2019-04-04T05:22:48.876Z,4.90
2019-04-04T05:27:53.506Z,4.73
2019-04-04T05:32:57.842Z,4.27
2019-04-04T05:38:01.980Z,4.90
2019-04-04T05:43:06.182Z,4.40
2019-04-04T05:48:10.355Z,4.30
2019-04-04T05:53:14.242Z,4.37
2019-04-04T05:58:21.738Z,4.10
2019-04-04T06:03:24.371Z,3.50
2019-04-04T06:08:28.266Z,5.10
2019-04-04T06:13:32.839Z,4.40
2019-04-04T06:18:37.095Z,4.63
2019-04-04T06:23:41.611Z,4.40
2019-04-04T06:28:45.554Z,4.77
2019-04-04T06:33:49.771Z,4.10
2019-04-04T06:38:54.651Z,4.90
2019-04-04T06:43:58.644Z,4.90
2019-04-04T06:49:04.342Z,5.03
2019-04-04T06:54:08.755Z,5.43
2019-04-04T06:59:12.722Z,5.10
2019-04-04T07:04:17.411Z,4.80
2019-04-04T07:09:21.863Z,5.10
2019-04-04T07:14:25.742Z,5.00
2019-04-04T07:19:29.684Z,4.83
2019-04-04T07:24:33.547Z,4.60
2019-04-04T07:29:37.419Z,5.53
2019-04-04T07:34:44.965Z,5.40
2019-04-04T07:39:50.042Z,5.33
2019-04-04T07:44:54.652Z,5.73
2019-04-04T07:49:59.003Z,5.33
2019-04-04T07:55:02.975Z,6.30
2019-04-04T08:00:07.659Z,5.90
2019-04-04T08:05:13.276Z,5.20
2019-04-04T08:10:20.949Z,4.57
2019-04-04T08:15:24.076Z,5.03
2019-04-04T08:20:28.024Z,5.13
2019-04-04T08:25:31.892Z,6.40
2019-04-04T08:30:35.836Z,5.93
2019-04-04T08:35:40.599Z,4.67
2019-04-04T08:40:46.242Z,6.93
2019-04-04T08:45:50.716Z,6.20
2019-04-04T08:50:55.249Z,5.67
2019-04-04T08:55:59.126Z,5.87
2019-04-04T09:01:03.019Z,6.70
2019-04-04T09:06:07.227Z,6.50
2019-04-04T09:11:11.099Z,6.57
2019-04-04T09:16:15.105Z,7.10
2019-04-04T09:21:19.743Z,6.63
2019-04-04T09:26:24.052Z,7.37
2019-04-04T09:31:28.623Z,7.70
2019-04-04T09:36:32.927Z,6.83
2019-04-04T09:41:37.375Z,8.27
2019-04-04T09:46:41.908Z,8.13
2019-04-04T09:51:45.818Z,7.30
2019-04-04T09:56:49.752Z,8.77
2019-04-04T10:01:54.106Z,9.47
2019-04-04T10:06:57.983Z,9.23
2019-04-04T10:12:02.160Z,9.00
2019-04-04T10:17:06.022Z,9.60
2019-04-04T10:22:09.979Z,8.80
2019-04-04T10:27:14.152Z,10.30
2019-04-04T10:32:18.479Z,11.00
2019-04-04T10:37:22.607Z,10.73
2019-04-04T10:42:26.618Z,11.57
2019-04-04T10:47:31.175Z,12.77
2019-04-04T10:52:35.439Z,12.47
2019-04-04T10:57:39.375Z,12.20
2019-04-04T11:02:43.979Z,13.50
2019-04-04T11:07:48.131Z,14.40
2019-04-04T11:12:52.489Z,13.00
2019-04-04T11:17:56.787Z,13.97
2019-04-04T11:23:01.020Z,13.00
2019-04-04T11:28:05.251Z,13.43
2019-04-04T11:33:09.207Z,13.10
2019-04-04T11:38:13.086Z,14.30
2019-04-04T11:43:17.102Z,12.70
2019-04-04T11:48:21.571Z,13.93
2019-04-04T11:53:25.603Z,12.90
2019-04-04T11:58:29.827Z,13.67
2019-04-04T12:03:33.721Z,14.50
2019-04-04T12:08:37.853Z,15.17
2019-04-04T12:13:41.715Z,13.97
2019-04-04T12:18:46.275Z,14.77
2019-04-04T12:23:51.508Z,13.40
2019-04-04T12:28:55.907Z,13.93
2019-04-04T12:34:02.106Z,9.37
2019-04-04T12:39:07.645Z,7.50
2019-04-04T12:49:31.080Z,8.40
2019-04-04T12:54:34.975Z,11.00
2019-04-04T12:59:39.382Z,14.53
2019-04-04T13:04:44.016Z,13.77
2019-04-04T13:09:48.565Z,12.47
2019-04-04T13:14:52.506Z,13.57
2019-04-04T13:19:57.564Z,12.80
2019-04-04T13:25:01.784Z,13.70
2019-04-04T13:30:07.841Z,12.97
2019-04-04T13:35:12.499Z,14.03
2019-04-04T13:40:17.460Z,13.30
2019-04-04T13:45:24.866Z,13.67
2019-04-04T13:50:27.403Z,14.27
2019-04-04T13:55:32.108Z,13.70
2019-04-04T14:00:36.432Z,14.23
2019-04-04T14:05:40.483Z,14.90
2019-04-04T14:10:57.247Z,14.20
2019-04-04T14:15:51.377Z,16.27
2019-04-04T14:21:03.328Z,15.43
2019-04-04T14:26:02.362Z,15.27
2019-04-04T14:31:06.409Z,14.00
2019-04-04T14:36:10.426Z,15.90
2019-04-04T14:41:14.663Z,15.63
2019-04-04T14:46:18.991Z,14.30
2019-04-04T14:51:23.239Z,14.83
2019-04-04T14:56:28.976Z,14.07
2019-04-04T15:01:34.949Z,15.37
2019-04-04T15:06:38.474Z,13.53
2019-04-04T15:11:43.068Z,14.00
2019-04-04T15:16:46.941Z,13.87
2019-04-04T15:21:51.266Z,13.03
2019-04-04T15:26:55.144Z,14.57
2019-04-04T15:31:59.599Z,13.27
2019-04-04T15:37:03.511Z,13.83
2019-04-04T15:42:08.175Z,12.43
2019-04-04T15:47:12.815Z,12.50
2019-04-04T15:52:17.035Z,12.67
2019-04-04T15:57:20.887Z,11.53
2019-04-04T16:02:25.087Z,11.53
2019-04-04T16:07:29.351Z,13.40
2019-04-04T16:12:33.517Z,12.10
2019-04-04T16:17:38.075Z,12.07
2019-04-04T16:22:42.922Z,12.60
2019-04-04T16:27:47.483Z,12.87
2019-04-04T16:32:51.857Z,5.87
2019-04-04T16:37:56.371Z,10.20
2019-04-04T16:43:00.264Z,11.43
2019-04-04T16:48:04.832Z,13.50
2019-04-04T16:53:08.963Z,11.40
2019-04-04T16:58:12.880Z,11.10
2019-04-04T17:03:16.826Z,10.40
2019-04-04T17:08:20.702Z,9.53
2019-04-04T17:13:25.191Z,10.58
2019-04-04T17:18:29.063Z,9.67
2019-04-04T17:23:32.916Z,8.80
2019-04-04T17:28:36.783Z,10.13
2019-04-04T17:33:41.127Z,20.07
2019-04-04T17:38:45.910Z,41.13
2019-04-04T17:43:50.607Z,39.90
2019-04-04T17:48:54.524Z,38.37
2019-04-04T17:53:59.161Z,41.00
2019-04-04T17:59:03.592Z,41.23
2019-04-04T18:04:07.739Z,43.00
2019-04-04T18:09:12.004Z,34.70
2019-04-04T18:14:16.222Z,35.30
2019-04-04T18:19:21.038Z,29.37
2019-04-04T18:24:25.275Z,27.20
2019-04-04T18:29:29.928Z,39.48
2019-04-04T18:34:33.863Z,28.33
2019-04-04T18:39:38.055Z,25.30
2019-04-04T18:44:42.702Z,23.80
2019-04-04T18:49:47.008Z,25.83
2019-04-04T18:54:51.046Z,26.17
2019-04-04T18:59:55.132Z,22.77
2019-04-04T19:04:59.548Z,20.07
2019-04-04T19:10:04.026Z,19.60
2019-04-04T19:15:08.659Z,19.03
2019-04-04T19:20:13.275Z,16.77
2019-04-04T19:25:17.715Z,18.73
2019-04-04T19:30:23.090Z,17.40
2019-04-04T19:35:27.715Z,14.30
2019-04-04T19:40:31.745Z,14.70
2019-04-04T19:45:35.879Z,14.60
2019-04-04T19:50:39.932Z,14.20
2019-04-04T19:55:44.654Z,13.37
2019-04-04T20:00:48.711Z,13.03
2019-04-04T20:05:52.925Z,12.33
2019-04-04T20:10:56.879Z,12.60
2019-04-04T20:16:00.885Z,12.73
2019-04-04T20:21:05.106Z,11.73
2019-04-04T20:26:09.141Z,11.03
2019-04-04T20:31:13.091Z,12.50
2019-04-04T20:36:17.308Z,11.23
2019-04-04T20:41:21.323Z,9.97
2019-04-04T20:46:25.276Z,11.80
2019-04-04T20:51:29.248Z,10.30
2019-04-04T20:56:33.106Z,11.30
2019-04-04T21:01:36.996Z,10.43
2019-04-04T21:06:41.258Z,10.00
2019-04-04T21:11:45.491Z,10.60
2019-04-04T21:16:49.371Z,9.57
2019-04-04T21:21:53.767Z,11.10
2019-04-04T21:26:58.034Z,10.53
2019-04-04T21:32:02.219Z,10.70
2019-04-04T21:37:06.457Z,10.57
2019-04-04T21:42:10.426Z,10.50
2019-04-04T21:47:15.220Z,10.03
2019-04-04T21:52:19.522Z,9.17
2019-04-04T21:57:23.403Z,9.13
2019-04-04T22:02:27.691Z,10.17
2019-04-04T22:07:31.954Z,9.67
2019-04-04T22:12:36.387Z,9.17
2019-04-04T22:17:40.927Z,9.90
2019-04-04T22:22:44.823Z,9.90
2019-04-04T22:27:48.986Z,10.23
2019-04-04T22:32:52.936Z,9.50
2019-04-04T22:37:56.975Z,9.83
2019-04-04T22:43:01.181Z,9.40
2019-04-04T22:48:05.610Z,9.27
2019-04-04T22:53:09.876Z,10.00
2019-04-04T22:58:14.079Z,9.10
2019-04-04T23:03:18.142Z,8.50
2019-04-04T23:08:23.068Z,9.77
2019-04-04T23:13:27.069Z,10.13
2019-04-04T23:18:31.398Z,9.70
2019-04-04T23:23:35.615Z,10.63
2019-04-04T23:28:39.507Z,8.97
2019-04-04T23:33:43.554Z,10.00
2019-04-04T23:38:47.502Z,9.20
2019-04-04T23:43:52.279Z,9.40
2019-04-04T23:48:56.139Z,10.00
2019-04-04T23:54:00.711Z,9.50
2019-04-04T23:59:04.746Z,9.03
